No particular awareness of the weather is required.    There are no Weather-warnings




My webcam more information My webcam


Meteosat more information Meteosat


Radar de pluja more information rain snow radar


Visita la nostra xarxa de llocs de meteo:

Template documentation
and downloads

And another site



Nearby METAR Reports

   
LERS - Reus
Actualitzacio: 21-01-2019 17:00
Nuvols dispersos  
Nuvols dispersos  
   Vent: NW 9.3 km/h
Vent: NW 9.3 km/h
Temperatura: 13°C
Punt de rosada: -1°C
Humitat: 38%
Barometre: 1016 hPa
Nuvols: Nuvols dispersos
Visibilitat: More than 10 km
Cloud details: Nuvols dispersos 4500 ft
LERS 211600Z 31005KT 260V350 9999 FEW045 13/M01 Q1016
LEDA - Lleida
Actualitzacio: 21-01-2019 17:00
Nuvols dispersos  
Nuvols dispersos  
   Vent: WSW 5.6 km/h
Vent: WSW 5.6 km/h
Temperatura: 10°C
Termica: 9°C
Punt de rosada: 3°C
Humitat: 62%
Barometre: 1016 hPa
Nuvols: Nuvols dispersos
Visibilitat: More than 10 km
Cloud details: Nuvols dispersos 2000 ft
LEDA 211600Z 25003KT 210V290 9999 FEW020 10/03 Q1016
LEGE - Girona
Actualitzacio: 21-01-2019 17:00
Nuvols dispersos  
Nuvols dispersos  
   Vent: varia 3.7 km/h
Vent: varia 3.7 km/h
Temperatura: 9°C
Punt de rosada: 3°C
Humitat: 66%
Barometre: 1016 hPa
Nuvols: Nuvols dispersos
Visibilitat: More than 10 km
Cloud details: Nuvols dispersos 7000 ft
LEGE 211600Z VRB02KT 9999 FEW070 09/03 Q1016
LEMH - Mahon
Actualitzacio: 21-01-2019 17:00
Parcialment tapat  
Parcialment tapat  
   Vent: North 25.9 km/h
Vent: North 25.9 km/h
Temperatura: 10°C
Termica: 7°C
Punt de rosada: 5°C
Humitat: 71%
Barometre: 1015 hPa
Nuvols: Parcialment tapat
Visibilitat: More than 10 km
Cloud details: Parcialment tapat 2500 ft
LEMH 211600Z 01014KT 330V030 9999 SCT025 10/05 Q1015
LFMK - Carcassonne
Actualitzacio: 21-01-2019 17:00
Clar  
Clar  
   Vent: West 31.5 km/h
Vent: West 31.5 km/h
Temperatura: 6°C
Termica: 1°C
Punt de rosada: 1°C
Humitat: 71%
Barometre: 1019 hPa
Nuvols: Clar
Visibilitat: More than 10 km
Cloud details: Nuvols dispersos 3800 ft,
Clar 4600 ft
LFMK 211600Z AUTO 28017KT 9999 FEW038 OVC046 06/01 Q1019 TEMPO 28015G25KT
 

Guio original per  Saratoga-weather.org Adaptat per a la plantilla per  Weerstation Leuven

Trobareu la nostra informacio del temps tambe a:

European Weather Network

WeatherCloud

Weather Underground

Meteoclimatic

Equip utilitzat:

Weather-program
Weather Display

Weather-server
RaspberryPI 2

Proveidor

Weather Display

RaspberryPI 2